sensor_id;sensor_type;location;lat;lon;timestamp;P1;durP1;ratioP1;P2;durP2;ratioP2
19589;SDS011;12231;42.782;23.388;2022-12-05T00:00:14;9.27;;;6.30;;
19589;SDS011;12231;42.782;23.388;2022-12-05T00:02:40;10.47;;;5.77;;
19589;SDS011;12231;42.782;23.388;2022-12-05T00:05:06;9.57;;;5.50;;
19589;SDS011;12231;42.782;23.388;2022-12-05T00:07:31;10.87;;;5.10;;
19589;SDS011;12231;42.782;23.388;2022-12-05T00:09:57;7.50;;;4.67;;
19589;SDS011;12231;42.782;23.388;2022-12-05T00:12:22;8.07;;;4.53;;
19589;SDS011;12231;42.782;23.388;2022-12-05T00:14:48;9.13;;;4.43;;
19589;SDS011;12231;42.782;23.388;2022-12-05T00:17:13;6.40;;;4.30;;
19589;SDS011;12231;42.782;23.388;2022-12-05T00:19:38;9.13;;;4.60;;
19589;SDS011;12231;42.782;23.388;2022-12-05T00:22:04;8.03;;;4.87;;
19589;SDS011;12231;42.782;23.388;2022-12-05T00:24:29;10.53;;;5.37;;
19589;SDS011;12231;42.782;23.388;2022-12-05T00:26:55;11.10;;;5.37;;
19589;SDS011;12231;42.782;23.388;2022-12-05T00:29:20;7.30;;;5.07;;
19589;SDS011;12231;42.782;23.388;2022-12-05T00:31:46;9.37;;;5.40;;
19589;SDS011;12231;42.782;23.388;2022-12-05T00:34:11;10.33;;;5.37;;
19589;SDS011;12231;42.782;23.388;2022-12-05T00:36:37;9.60;;;5.43;;
19589;SDS011;12231;42.782;23.388;2022-12-05T00:39:04;11.13;;;7.03;;
19589;SDS011;12231;42.782;23.388;2022-12-05T00:41:33;12.00;;;6.33;;
19589;SDS011;12231;42.782;23.388;2022-12-05T00:43:59;13.30;;;5.87;;
19589;SDS011;12231;42.782;23.388;2022-12-05T00:46:26;6.80;;;4.93;;
19589;SDS011;12231;42.782;23.388;2022-12-05T00:48:54;7.80;;;5.20;;
19589;SDS011;12231;42.782;23.388;2022-12-05T00:53:46;8.13;;;5.20;;
19589;SDS011;12231;42.782;23.388;2022-12-05T00:56:13;9.23;;;4.87;;
19589;SDS011;12231;42.782;23.388;2022-12-05T00:58:41;6.93;;;5.10;;
19589;SDS011;12231;42.782;23.388;2022-12-05T01:01:11;6.73;;;4.30;;
19589;SDS011;12231;42.782;23.388;2022-12-05T01:03:42;7.13;;;4.67;;
19589;SDS011;12231;42.782;23.388;2022-12-05T01:06:10;8.60;;;5.00;;
19589;SDS011;12231;42.782;23.388;2022-12-05T01:08:36;7.70;;;4.67;;
19589;SDS011;12231;42.782;23.388;2022-12-05T01:11:02;7.00;;;4.37;;
19589;SDS011;12231;42.782;23.388;2022-12-05T01:13:29;9.10;;;4.77;;
19589;SDS011;12231;42.782;23.388;2022-12-05T01:15:55;6.87;;;4.00;;
19589;SDS011;12231;42.782;23.388;2022-12-05T01:18:21;9.10;;;4.80;;
19589;SDS011;12231;42.782;23.388;2022-12-05T01:20:47;6.97;;;4.43;;
19589;SDS011;12231;42.782;23.388;2022-12-05T01:23:13;8.37;;;4.27;;
19589;SDS011;12231;42.782;23.388;2022-12-05T01:25:42;7.40;;;3.90;;
19589;SDS011;12231;42.782;23.388;2022-12-05T01:28:10;6.07;;;3.27;;
19589;SDS011;12231;42.782;23.388;2022-12-05T01:30:40;5.67;;;4.00;;
19589;SDS011;12231;42.782;23.388;2022-12-05T01:33:12;7.53;;;4.43;;
19589;SDS011;12231;42.782;23.388;2022-12-05T01:35:39;6.27;;;4.40;;
19589;SDS011;12231;42.782;23.388;2022-12-05T01:38:05;7.70;;;3.80;;
19589;SDS011;12231;42.782;23.388;2022-12-05T01:40:32;6.87;;;4.03;;
19589;SDS011;12231;42.782;23.388;2022-12-05T01:43:00;6.70;;;3.73;;
19589;SDS011;12231;42.782;23.388;2022-12-05T01:48:02;5.40;;;3.80;;
19589;SDS011;12231;42.782;23.388;2022-12-05T01:50:32;7.57;;;4.47;;
19589;SDS011;12231;42.782;23.388;2022-12-05T01:52:58;8.13;;;4.30;;
19589;SDS011;12231;42.782;23.388;2022-12-05T01:55:25;7.60;;;4.00;;
19589;SDS011;12231;42.782;23.388;2022-12-05T01:57:50;8.53;;;3.87;;
19589;SDS011;12231;42.782;23.388;2022-12-05T02:00:17;5.67;;;3.67;;
19589;SDS011;12231;42.782;23.388;2022-12-05T02:02:53;7.83;;;4.13;;
19589;SDS011;12231;42.782;23.388;2022-12-05T02:05:24;7.63;;;4.63;;
19589;SDS011;12231;42.782;23.388;2022-12-05T02:07:53;8.87;;;4.80;;
19589;SDS011;12231;42.782;23.388;2022-12-05T02:10:19;11.77;;;5.17;;
19589;SDS011;12231;42.782;23.388;2022-12-05T02:12:44;8.50;;;5.20;;
19589;SDS011;12231;42.782;23.388;2022-12-05T02:31:46;6.10;;;4.37;;
19589;SDS011;12231;42.782;23.388;2022-12-05T02:34:27;8.83;;;4.57;;
19589;SDS011;12231;42.782;23.388;2022-12-05T02:37:11;8.77;;;4.60;;
19589;SDS011;12231;42.782;23.388;2022-12-05T02:42:17;10.40;;;5.20;;
19589;SDS011;12231;42.782;23.388;2022-12-05T02:44:53;12.47;;;5.03;;
19589;SDS011;12231;42.782;23.388;2022-12-05T02:47:24;12.70;;;5.40;;
19589;SDS011;12231;42.782;23.388;2022-12-05T02:49:52;10.33;;;4.83;;
19589;SDS011;12231;42.782;23.388;2022-12-05T02:52:19;13.33;;;5.30;;
19589;SDS011;12231;42.782;23.388;2022-12-05T02:54:47;12.60;;;6.07;;
19589;SDS011;12231;42.782;23.388;2022-12-05T02:57:15;13.20;;;5.10;;
19589;SDS011;12231;42.782;23.388;2022-12-05T02:59:42;12.33;;;5.50;;
19589;SDS011;12231;42.782;23.388;2022-12-05T03:02:08;10.40;;;5.77;;
19589;SDS011;12231;42.782;23.388;2022-12-05T03:04:46;9.80;;;5.70;;
19589;SDS011;12231;42.782;23.388;2022-12-05T03:07:11;12.90;;;6.97;;
19589;SDS011;12231;42.782;23.388;2022-12-05T03:09:44;11.57;;;6.43;;
19589;SDS011;12231;42.782;23.388;2022-12-05T03:12:14;9.40;;;4.87;;
19589;SDS011;12231;42.782;23.388;2022-12-05T03:14:51;10.93;;;5.63;;
19589;SDS011;12231;42.782;23.388;2022-12-05T03:17:23;8.53;;;4.60;;
19589;SDS011;12231;42.782;23.388;2022-12-05T03:20:01;13.23;;;5.10;;
19589;SDS011;12231;42.782;23.388;2022-12-05T03:25:20;10.17;;;4.87;;
19589;SDS011;12231;42.782;23.388;2022-12-05T03:27:56;11.63;;;5.33;;
19589;SDS011;12231;42.782;23.388;2022-12-05T03:30:29;11.00;;;5.93;;
19589;SDS011;12231;42.782;23.388;2022-12-05T03:35:42;10.40;;;5.33;;
19589;SDS011;12231;42.782;23.388;2022-12-05T03:38:14;11.70;;;5.57;;
19589;SDS011;12231;42.782;23.388;2022-12-05T03:40:46;12.40;;;5.97;;
19589;SDS011;12231;42.782;23.388;2022-12-05T03:43:28;13.23;;;5.30;;
19589;SDS011;12231;42.782;23.388;2022-12-05T03:46:13;9.80;;;4.87;;
19589;SDS011;12231;42.782;23.388;2022-12-05T03:51:38;9.67;;;6.07;;
19589;SDS011;12231;42.782;23.388;2022-12-05T03:54:09;11.27;;;6.07;;
19589;SDS011;12231;42.782;23.388;2022-12-05T03:56:45;9.23;;;5.03;;
19589;SDS011;12231;42.782;23.388;2022-12-05T03:59:23;10.10;;;5.50;;
19589;SDS011;12231;42.782;23.388;2022-12-05T04:01:55;17.63;;;8.60;;
19589;SDS011;12231;42.782;23.388;2022-12-05T04:04:29;11.97;;;6.53;;
19589;SDS011;12231;42.782;23.388;2022-12-05T04:07:00;12.37;;;5.80;;
19589;SDS011;12231;42.782;23.388;2022-12-05T04:09:41;12.10;;;7.13;;
19589;SDS011;12231;42.782;23.388;2022-12-05T04:12:13;13.63;;;7.17;;
19589;SDS011;12231;42.782;23.388;2022-12-05T04:14:46;10.73;;;6.27;;
19589;SDS011;12231;42.782;23.388;2022-12-05T04:17:36;9.53;;;6.10;;
19589;SDS011;12231;42.782;23.388;2022-12-05T04:20:12;13.17;;;5.73;;
19589;SDS011;12231;42.782;23.388;2022-12-05T04:23:00;16.73;;;6.43;;
19589;SDS011;12231;42.782;23.388;2022-12-05T04:25:27;9.30;;;5.47;;
19589;SDS011;12231;42.782;23.388;2022-12-05T04:30:30;9.50;;;6.00;;
19589;SDS011;12231;42.782;23.388;2022-12-05T04:35:58;11.07;;;5.83;;
19589;SDS011;12231;42.782;23.388;2022-12-05T04:38:41;12.57;;;6.33;;
19589;SDS011;12231;42.782;23.388;2022-12-05T04:41:47;13.00;;;7.20;;
19589;SDS011;12231;42.782;23.388;2022-12-05T04:44:18;14.60;;;7.17;;
19589;SDS011;12231;42.782;23.388;2022-12-05T04:46:48;14.07;;;6.77;;
19589;SDS011;12231;42.782;23.388;2022-12-05T04:49:18;12.20;;;6.80;;
19589;SDS011;12231;42.782;23.388;2022-12-05T04:51:51;9.17;;;4.93;;
19589;SDS011;12231;42.782;23.388;2022-12-05T04:54:23;11.00;;;5.63;;
19589;SDS011;12231;42.782;23.388;2022-12-05T04:56:54;11.07;;;6.30;;
19589;SDS011;12231;42.782;23.388;2022-12-05T04:59:26;13.37;;;6.80;;
19589;SDS011;12231;42.782;23.388;2022-12-05T05:01:52;12.53;;;6.07;;
19589;SDS011;12231;42.782;23.388;2022-12-05T05:04:25;12.87;;;5.17;;
19589;SDS011;12231;42.782;23.388;2022-12-05T05:06:52;14.23;;;7.20;;
19589;SDS011;12231;42.782;23.388;2022-12-05T05:09:17;9.37;;;5.30;;
19589;SDS011;12231;42.782;23.388;2022-12-05T05:11:43;17.47;;;8.67;;
19589;SDS011;12231;42.782;23.388;2022-12-05T05:14:08;12.67;;;6.77;;
19589;SDS011;12231;42.782;23.388;2022-12-05T05:16:35;13.80;;;6.23;;
19589;SDS011;12231;42.782;23.388;2022-12-05T05:19:02;14.53;;;7.30;;
19589;SDS011;12231;42.782;23.388;2022-12-05T05:21:30;14.00;;;7.47;;
19589;SDS011;12231;42.782;23.388;2022-12-05T05:23:57;15.20;;;7.57;;
19589;SDS011;12231;42.782;23.388;2022-12-05T05:26:24;11.13;;;6.73;;
19589;SDS011;12231;42.782;23.388;2022-12-05T05:28:50;12.17;;;6.87;;
19589;SDS011;12231;42.782;23.388;2022-12-05T05:31:16;10.20;;;5.87;;
19589;SDS011;12231;42.782;23.388;2022-12-05T05:33:43;9.47;;;5.37;;
19589;SDS011;12231;42.782;23.388;2022-12-05T05:36:10;13.00;;;6.77;;
19589;SDS011;12231;42.782;23.388;2022-12-05T05:38:38;12.30;;;6.00;;
19589;SDS011;12231;42.782;23.388;2022-12-05T05:41:22;12.30;;;6.33;;
19589;SDS011;12231;42.782;23.388;2022-12-05T05:43:49;17.10;;;7.03;;
19589;SDS011;12231;42.782;23.388;2022-12-05T05:46:16;13.57;;;7.87;;
19589;SDS011;12231;42.782;23.388;2022-12-05T05:48:43;16.07;;;7.50;;
19589;SDS011;12231;42.782;23.388;2022-12-05T05:51:09;12.23;;;6.93;;
19589;SDS011;12231;42.782;23.388;2022-12-05T05:53:36;10.90;;;6.60;;
19589;SDS011;12231;42.782;23.388;2022-12-05T05:56:05;14.03;;;8.07;;
19589;SDS011;12231;42.782;23.388;2022-12-05T05:58:33;11.20;;;6.67;;
19589;SDS011;12231;42.782;23.388;2022-12-05T06:01:05;10.33;;;6.30;;
19589;SDS011;12231;42.782;23.388;2022-12-05T06:03:36;9.80;;;5.87;;
19589;SDS011;12231;42.782;23.388;2022-12-05T06:06:03;12.27;;;6.20;;
19589;SDS011;12231;42.782;23.388;2022-12-05T06:08:31;11.07;;;6.33;;
19589;SDS011;12231;42.782;23.388;2022-12-05T06:10:58;11.40;;;6.23;;
19589;SDS011;12231;42.782;23.388;2022-12-05T06:13:24;12.57;;;6.97;;
19589;SDS011;12231;42.782;23.388;2022-12-05T06:15:49;15.07;;;6.67;;
19589;SDS011;12231;42.782;23.388;2022-12-05T06:18:15;18.23;;;7.93;;
19589;SDS011;12231;42.782;23.388;2022-12-05T06:20:40;13.50;;;7.60;;
19589;SDS011;12231;42.782;23.388;2022-12-05T06:23:06;15.80;;;7.03;;
19589;SDS011;12231;42.782;23.388;2022-12-05T06:25:32;15.63;;;8.20;;
19589;SDS011;12231;42.782;23.388;2022-12-05T06:27:57;11.67;;;8.20;;
19589;SDS011;12231;42.782;23.388;2022-12-05T06:30:23;9.03;;;5.57;;
19589;SDS011;12231;42.782;23.388;2022-12-05T06:32:48;17.20;;;9.93;;
19589;SDS011;12231;42.782;23.388;2022-12-05T06:35:14;16.93;;;11.00;;
19589;SDS011;12231;42.782;23.388;2022-12-05T06:37:43;14.40;;;7.03;;
19589;SDS011;12231;42.782;23.388;2022-12-05T06:40:12;11.30;;;8.00;;
19589;SDS011;12231;42.782;23.388;2022-12-05T06:42:37;14.70;;;8.87;;
19589;SDS011;12231;42.782;23.388;2022-12-05T06:45:03;14.93;;;9.03;;
19589;SDS011;12231;42.782;23.388;2022-12-05T06:47:29;16.30;;;8.70;;
19589;SDS011;12231;42.782;23.388;2022-12-05T06:49:55;15.53;;;7.20;;
19589;SDS011;12231;42.782;23.388;2022-12-05T06:52:21;13.60;;;7.63;;
19589;SDS011;12231;42.782;23.388;2022-12-05T06:54:46;11.63;;;6.73;;
19589;SDS011;12231;42.782;23.388;2022-12-05T06:57:12;13.90;;;7.70;;
19589;SDS011;12231;42.782;23.388;2022-12-05T06:59:38;12.17;;;6.67;;
19589;SDS011;12231;42.782;23.388;2022-12-05T07:02:04;10.53;;;6.63;;
19589;SDS011;12231;42.782;23.388;2022-12-05T07:04:33;11.73;;;7.00;;
19589;SDS011;12231;42.782;23.388;2022-12-05T07:06:58;14.27;;;9.30;;
19589;SDS011;12231;42.782;23.388;2022-12-05T07:09:26;10.30;;;5.90;;
19589;SDS011;12231;42.782;23.388;2022-12-05T07:12:10;16.10;;;10.00;;
19589;SDS011;12231;42.782;23.388;2022-12-05T07:14:37;16.03;;;7.93;;
19589;SDS011;12231;42.782;23.388;2022-12-05T07:17:02;13.43;;;8.53;;
19589;SDS011;12231;42.782;23.388;2022-12-05T07:19:28;15.10;;;7.50;;
19589;SDS011;12231;42.782;23.388;2022-12-05T07:21:53;12.10;;;5.90;;
19589;SDS011;12231;42.782;23.388;2022-12-05T07:24:18;9.57;;;5.37;;
19589;SDS011;12231;42.782;23.388;2022-12-05T07:26:44;12.07;;;6.33;;
19589;SDS011;12231;42.782;23.388;2022-12-05T07:29:09;13.20;;;6.17;;
19589;SDS011;12231;42.782;23.388;2022-12-05T07:31:35;14.63;;;7.43;;
19589;SDS011;12231;42.782;23.388;2022-12-05T07:34:01;13.83;;;8.33;;
19589;SDS011;12231;42.782;23.388;2022-12-05T07:36:26;10.73;;;7.10;;
19589;SDS011;12231;42.782;23.388;2022-12-05T07:38:56;11.63;;;7.03;;
19589;SDS011;12231;42.782;23.388;2022-12-05T07:41:23;13.87;;;6.63;;
19589;SDS011;12231;42.782;23.388;2022-12-05T07:43:54;9.30;;;5.57;;
19589;SDS011;12231;42.782;23.388;2022-12-05T07:46:21;12.47;;;6.10;;
19589;SDS011;12231;42.782;23.388;2022-12-05T07:48:47;10.70;;;5.47;;
19589;SDS011;12231;42.782;23.388;2022-12-05T07:51:15;6.67;;;4.93;;
19589;SDS011;12231;42.782;23.388;2022-12-05T07:53:42;12.40;;;6.27;;
19589;SDS011;12231;42.782;23.388;2022-12-05T07:56:09;14.37;;;6.73;;
19589;SDS011;12231;42.782;23.388;2022-12-05T07:58:36;15.10;;;6.07;;
19589;SDS011;12231;42.782;23.388;2022-12-05T08:01:09;8.03;;;4.17;;
19589;SDS011;12231;42.782;23.388;2022-12-05T08:03:39;10.00;;;5.60;;
19589;SDS011;12231;42.782;23.388;2022-12-05T08:06:07;10.03;;;7.10;;
19589;SDS011;12231;42.782;23.388;2022-12-05T08:08:34;12.27;;;5.30;;
19589;SDS011;12231;42.782;23.388;2022-12-05T08:11:04;11.27;;;6.60;;
19589;SDS011;12231;42.782;23.388;2022-12-05T08:13:33;11.00;;;5.40;;
19589;SDS011;12231;42.782;23.388;2022-12-05T08:16:02;13.13;;;5.90;;
19589;SDS011;12231;42.782;23.388;2022-12-05T08:18:30;7.27;;;5.33;;
19589;SDS011;12231;42.782;23.388;2022-12-05T08:21:03;14.57;;;8.13;;
19589;SDS011;12231;42.782;23.388;2022-12-05T08:23:31;9.63;;;4.80;;
19589;SDS011;12231;42.782;23.388;2022-12-05T08:28:35;8.00;;;5.43;;
19589;SDS011;12231;42.782;23.388;2022-12-05T08:31:14;15.83;;;8.47;;
19589;SDS011;12231;42.782;23.388;2022-12-05T08:33:41;16.93;;;8.87;;
19589;SDS011;12231;42.782;23.388;2022-12-05T08:36:09;13.10;;;6.33;;
19589;SDS011;12231;42.782;23.388;2022-12-05T08:38:36;12.43;;;6.70;;
19589;SDS011;12231;42.782;23.388;2022-12-05T08:41:08;14.57;;;5.73;;
19589;SDS011;12231;42.782;23.388;2022-12-05T08:43:36;7.03;;;4.13;;
19589;SDS011;12231;42.782;23.388;2022-12-05T08:46:02;10.87;;;5.63;;
19589;SDS011;12231;42.782;23.388;2022-12-05T08:48:29;10.30;;;5.17;;
19589;SDS011;12231;42.782;23.388;2022-12-05T08:50:56;11.07;;;4.80;;
19589;SDS011;12231;42.782;23.388;2022-12-05T08:53:22;11.07;;;5.03;;
19589;SDS011;12231;42.782;23.388;2022-12-05T08:55:47;6.37;;;4.23;;
19589;SDS011;12231;42.782;23.388;2022-12-05T08:58:12;8.80;;;4.73;;
19589;SDS011;12231;42.782;23.388;2022-12-05T09:00:38;5.90;;;3.90;;
19589;SDS011;12231;42.782;23.388;2022-12-05T09:03:05;7.73;;;4.33;;
19589;SDS011;12231;42.782;23.388;2022-12-05T09:05:31;8.63;;;3.90;;
19589;SDS011;12231;42.782;23.388;2022-12-05T09:07:56;7.33;;;4.03;;
19589;SDS011;12231;42.782;23.388;2022-12-05T09:10:23;11.90;;;4.57;;
19589;SDS011;12231;42.782;23.388;2022-12-05T09:12:49;7.73;;;4.43;;
19589;SDS011;12231;42.782;23.388;2022-12-05T09:15:15;8.30;;;4.27;;
19589;SDS011;12231;42.782;23.388;2022-12-05T09:17:42;8.90;;;5.07;;
19589;SDS011;12231;42.782;23.388;2022-12-05T09:20:07;7.90;;;4.67;;
19589;SDS011;12231;42.782;23.388;2022-12-05T09:22:35;14.27;;;4.93;;
19589;SDS011;12231;42.782;23.388;2022-12-05T09:25:01;11.00;;;5.50;;
19589;SDS011;12231;42.782;23.388;2022-12-05T09:27:27;9.10;;;5.40;;
19589;SDS011;12231;42.782;23.388;2022-12-05T09:29:53;11.50;;;6.57;;
19589;SDS011;12231;42.782;23.388;2022-12-05T09:32:18;6.70;;;4.20;;
19589;SDS011;12231;42.782;23.388;2022-12-05T09:34:44;10.73;;;5.07;;
19589;SDS011;12231;42.782;23.388;2022-12-05T09:37:09;8.27;;;4.20;;
19589;SDS011;12231;42.782;23.388;2022-12-05T09:39:35;9.30;;;4.70;;
19589;SDS011;12231;42.782;23.388;2022-12-05T09:45:02;7.50;;;4.53;;
19589;SDS011;12231;42.782;23.388;2022-12-05T09:47:52;6.03;;;4.27;;
19589;SDS011;12231;42.782;23.388;2022-12-05T09:50:21;10.55;;;6.25;;
19589;SDS011;12231;42.782;23.388;2022-12-05T09:52:54;7.10;;;4.77;;
19589;SDS011;12231;42.782;23.388;2022-12-05T09:55:42;11.03;;;5.90;;
19589;SDS011;12231;42.782;23.388;2022-12-05T09:58:21;12.23;;;5.90;;
19589;SDS011;12231;42.782;23.388;2022-12-05T10:00:52;9.10;;;5.03;;
19589;SDS011;12231;42.782;23.388;2022-12-05T10:03:38;9.03;;;5.77;;
19589;SDS011;12231;42.782;23.388;2022-12-05T10:06:37;11.10;;;5.43;;
19589;SDS011;12231;42.782;23.388;2022-12-05T10:20:21;8.77;;;4.87;;
19589;SDS011;12231;42.782;23.388;2022-12-05T10:22:58;13.70;;;6.97;;
19589;SDS011;12231;42.782;23.388;2022-12-05T10:25:39;10.77;;;5.53;;
19589;SDS011;12231;42.782;23.388;2022-12-05T10:28:10;12.23;;;6.73;;
19589;SDS011;12231;42.782;23.388;2022-12-05T10:30:42;16.63;;;9.37;;
19589;SDS011;12231;42.782;23.388;2022-12-05T10:33:12;8.53;;;5.30;;
19589;SDS011;12231;42.782;23.388;2022-12-05T10:35:42;8.93;;;5.63;;
19589;SDS011;12231;42.782;23.388;2022-12-05T10:38:13;9.33;;;6.07;;
19589;SDS011;12231;42.782;23.388;2022-12-05T10:40:52;12.20;;;5.60;;
19589;SDS011;12231;42.782;23.388;2022-12-05T10:43:23;10.80;;;6.17;;
19589;SDS011;12231;42.782;23.388;2022-12-05T10:45:54;12.53;;;6.37;;
19589;SDS011;12231;42.782;23.388;2022-12-05T10:48:20;10.10;;;5.57;;
19589;SDS011;12231;42.782;23.388;2022-12-05T10:50:48;8.70;;;5.23;;
19589;SDS011;12231;42.782;23.388;2022-12-05T10:53:17;11.30;;;5.00;;
19589;SDS011;12231;42.782;23.388;2022-12-05T10:55:47;6.80;;;3.87;;
19589;SDS011;12231;42.782;23.388;2022-12-05T10:58:24;7.90;;;4.23;;
19589;SDS011;12231;42.782;23.388;2022-12-05T11:01:13;5.87;;;3.80;;
19589;SDS011;12231;42.782;23.388;2022-12-05T11:03:40;7.90;;;5.50;;
19589;SDS011;12231;42.782;23.388;2022-12-05T11:06:14;6.70;;;4.10;;
19589;SDS011;12231;42.782;23.388;2022-12-05T11:08:42;7.37;;;4.60;;
19589;SDS011;12231;42.782;23.388;2022-12-05T11:11:17;6.67;;;4.07;;
19589;SDS011;12231;42.782;23.388;2022-12-05T11:16:40;7.00;;;4.57;;
19589;SDS011;12231;42.782;23.388;2022-12-05T11:21:49;8.27;;;4.90;;
19589;SDS011;12231;42.782;23.388;2022-12-05T11:26:56;9.03;;;4.83;;
19589;SDS011;12231;42.782;23.388;2022-12-05T11:29:31;6.57;;;4.67;;
19589;SDS011;12231;42.782;23.388;2022-12-05T11:32:02;8.73;;;4.57;;
19589;SDS011;12231;42.782;23.388;2022-12-05T11:34:47;7.37;;;4.70;;
19589;SDS011;12231;42.782;23.388;2022-12-05T11:37:19;8.23;;;4.53;;
19589;SDS011;12231;42.782;23.388;2022-12-05T11:39:49;7.37;;;4.77;;
19589;SDS011;12231;42.782;23.388;2022-12-05T11:42:33;12.13;;;6.93;;
19589;SDS011;12231;42.782;23.388;2022-12-05T11:56:44;12.40;;;6.53;;
19589;SDS011;12231;42.782;23.388;2022-12-05T12:07:16;11.73;;;7.60;;
19589;SDS011;12231;42.782;23.388;2022-12-05T12:10:18;12.83;;;6.97;;
19589;SDS011;12231;42.782;23.388;2022-12-05T12:13:08;13.13;;;6.27;;
19589;SDS011;12231;42.782;23.388;2022-12-05T12:16:09;9.77;;;5.60;;
19589;SDS011;12231;42.782;23.388;2022-12-05T12:43:09;11.07;;;6.80;;
19589;SDS011;12231;42.782;23.388;2022-12-05T12:46:02;9.50;;;5.93;;
19589;SDS011;12231;42.782;23.388;2022-12-05T12:51:30;11.37;;;5.50;;
19589;SDS011;12231;42.782;23.388;2022-12-05T12:57:45;11.23;;;6.33;;
19589;SDS011;12231;42.782;23.388;2022-12-05T13:00:00;12.97;;;7.17;;
19589;SDS011;12231;42.782;23.388;2022-12-05T13:02:53;10.70;;;6.47;;
19589;SDS011;12231;42.782;23.388;2022-12-05T13:08:21;10.93;;;6.17;;
19589;SDS011;12231;42.782;23.388;2022-12-05T13:10:50;10.20;;;6.20;;
19589;SDS011;12231;42.782;23.388;2022-12-05T13:13:27;10.63;;;5.87;;
19589;SDS011;12231;42.782;23.388;2022-12-05T13:15:59;19.00;;;8.37;;
19589;SDS011;12231;42.782;23.388;2022-12-05T13:18:26;11.90;;;5.73;;
19589;SDS011;12231;42.782;23.388;2022-12-05T13:20:53;30.63;;;18.20;;
19589;SDS011;12231;42.782;23.388;2022-12-05T13:23:23;12.27;;;6.57;;
19589;SDS011;12231;42.782;23.388;2022-12-05T13:25:52;12.77;;;7.83;;
19589;SDS011;12231;42.782;23.388;2022-12-05T13:28:24;14.57;;;7.70;;
19589;SDS011;12231;42.782;23.388;2022-12-05T13:31:06;12.27;;;7.20;;
19589;SDS011;12231;42.782;23.388;2022-12-05T13:33:35;13.60;;;8.67;;
19589;SDS011;12231;42.782;23.388;2022-12-05T13:36:06;14.97;;;7.90;;
19589;SDS011;12231;42.782;23.388;2022-12-05T13:39:03;13.10;;;7.03;;
19589;SDS011;12231;42.782;23.388;2022-12-05T13:41:53;19.00;;;8.70;;
19589;SDS011;12231;42.782;23.388;2022-12-05T13:44:44;16.07;;;7.57;;
19589;SDS011;12231;42.782;23.388;2022-12-05T13:52:40;15.57;;;7.60;;
19589;SDS011;12231;42.782;23.388;2022-12-05T13:55:34;13.63;;;7.03;;
19589;SDS011;12231;42.782;23.388;2022-12-05T14:00:42;16.03;;;9.00;;
19589;SDS011;12231;42.782;23.388;2022-12-05T14:05:40;12.77;;;6.73;;
19589;SDS011;12231;42.782;23.388;2022-12-05T14:24:26;14.93;;;9.23;;
19589;SDS011;12231;42.782;23.388;2022-12-05T14:39:56;12.57;;;7.73;;
19589;SDS011;12231;42.782;23.388;2022-12-05T14:44:59;12.63;;;8.10;;
19589;SDS011;12231;42.782;23.388;2022-12-05T14:47:28;13.53;;;6.27;;
19589;SDS011;12231;42.782;23.388;2022-12-05T14:53:20;14.40;;;8.03;;
19589;SDS011;12231;42.782;23.388;2022-12-05T14:58:23;11.63;;;6.87;;
19589;SDS011;12231;42.782;23.388;2022-12-05T15:00:58;15.83;;;8.77;;
19589;SDS011;12231;42.782;23.388;2022-12-05T15:03:30;16.73;;;8.43;;
19589;SDS011;12231;42.782;23.388;2022-12-05T15:06:00;14.47;;;8.67;;
19589;SDS011;12231;42.782;23.388;2022-12-05T15:08:29;12.30;;;7.97;;
19589;SDS011;12231;42.782;23.388;2022-12-05T15:11:05;14.77;;;8.17;;
19589;SDS011;12231;42.782;23.388;2022-12-05T15:13:30;18.63;;;9.30;;
19589;SDS011;12231;42.782;23.388;2022-12-05T15:16:05;21.90;;;9.47;;
19589;SDS011;12231;42.782;23.388;2022-12-05T15:24:02;16.70;;;8.73;;
19589;SDS011;12231;42.782;23.388;2022-12-05T15:29:25;21.23;;;9.73;;
19589;SDS011;12231;42.782;23.388;2022-12-05T15:31:54;25.93;;;11.70;;
19589;SDS011;12231;42.782;23.388;2022-12-05T15:37:18;27.80;;;12.80;;
19589;SDS011;12231;42.782;23.388;2022-12-05T15:39:59;19.27;;;7.77;;
19589;SDS011;12231;42.782;23.388;2022-12-05T15:53:15;27.87;;;12.60;;
19589;SDS011;12231;42.782;23.388;2022-12-05T15:55:53;25.50;;;12.10;;
19589;SDS011;12231;42.782;23.388;2022-12-05T15:58:33;26.17;;;13.17;;
19589;SDS011;12231;42.782;23.388;2022-12-05T16:01:25;21.63;;;11.13;;
19589;SDS011;12231;42.782;23.388;2022-12-05T16:06:31;26.70;;;11.00;;
19589;SDS011;12231;42.782;23.388;2022-12-05T16:09:04;27.87;;;12.60;;
19589;SDS011;12231;42.782;23.388;2022-12-05T16:11:32;20.60;;;10.03;;
19589;SDS011;12231;42.782;23.388;2022-12-05T16:14:00;20.90;;;9.53;;
19589;SDS011;12231;42.782;23.388;2022-12-05T16:16:30;17.53;;;7.67;;
19589;SDS011;12231;42.782;23.388;2022-12-05T16:19:02;12.03;;;7.37;;
19589;SDS011;12231;42.782;23.388;2022-12-05T16:21:33;10.93;;;6.40;;
19589;SDS011;12231;42.782;23.388;2022-12-05T16:24:19;13.23;;;7.17;;
19589;SDS011;12231;42.782;23.388;2022-12-05T16:26:51;12.93;;;7.70;;
19589;SDS011;12231;42.782;23.388;2022-12-05T16:29:32;22.10;;;10.33;;
19589;SDS011;12231;42.782;23.388;2022-12-05T16:32:00;25.87;;;9.87;;
19589;SDS011;12231;42.782;23.388;2022-12-05T16:34:28;17.57;;;9.07;;
19589;SDS011;12231;42.782;23.388;2022-12-05T16:36:57;20.20;;;9.20;;
19589;SDS011;12231;42.782;23.388;2022-12-05T16:39:23;20.33;;;11.67;;
19589;SDS011;12231;42.782;23.388;2022-12-05T16:41:52;13.33;;;8.83;;
19589;SDS011;12231;42.782;23.388;2022-12-05T16:46:53;18.30;;;9.03;;
19589;SDS011;12231;42.782;23.388;2022-12-05T16:54:32;15.50;;;9.20;;
19589;SDS011;12231;42.782;23.388;2022-12-05T16:56:58;14.50;;;9.23;;
19589;SDS011;12231;42.782;23.388;2022-12-05T16:59:34;11.47;;;6.77;;
19589;SDS011;12231;42.782;23.388;2022-12-05T17:02:02;27.40;;;12.07;;
19589;SDS011;12231;42.782;23.388;2022-12-05T17:04:29;43.67;;;16.23;;
19589;SDS011;12231;42.782;23.388;2022-12-05T17:06:55;48.00;;;18.00;;
19589;SDS011;12231;42.782;23.388;2022-12-05T17:09:21;51.53;;;21.07;;
19589;SDS011;12231;42.782;23.388;2022-12-05T17:11:48;60.47;;;19.33;;
19589;SDS011;12231;42.782;23.388;2022-12-05T17:14:17;32.23;;;14.40;;
19589;SDS011;12231;42.782;23.388;2022-12-05T17:16:43;28.87;;;10.47;;
19589;SDS011;12231;42.782;23.388;2022-12-05T17:19:09;32.67;;;12.93;;
19589;SDS011;12231;42.782;23.388;2022-12-05T17:21:35;17.43;;;9.47;;
19589;SDS011;12231;42.782;23.388;2022-12-05T17:24:02;19.87;;;10.33;;
19589;SDS011;12231;42.782;23.388;2022-12-05T17:26:28;19.33;;;9.40;;
19589;SDS011;12231;42.782;23.388;2022-12-05T17:28:53;16.53;;;9.53;;
19589;SDS011;12231;42.782;23.388;2022-12-05T17:31:22;26.13;;;13.23;;
19589;SDS011;12231;42.782;23.388;2022-12-05T17:33:49;20.63;;;11.23;;
19589;SDS011;12231;42.782;23.388;2022-12-05T17:36:16;16.43;;;9.17;;
19589;SDS011;12231;42.782;23.388;2022-12-05T17:38:42;19.40;;;11.13;;
19589;SDS011;12231;42.782;23.388;2022-12-05T17:41:18;25.00;;;13.17;;
19589;SDS011;12231;42.782;23.388;2022-12-05T17:43:45;26.83;;;15.33;;
19589;SDS011;12231;42.782;23.388;2022-12-05T17:46:16;22.80;;;11.90;;
19589;SDS011;12231;42.782;23.388;2022-12-05T17:48:43;25.30;;;16.17;;
19589;SDS011;12231;42.782;23.388;2022-12-05T17:51:09;24.80;;;14.90;;
19589;SDS011;12231;42.782;23.388;2022-12-05T17:53:38;21.17;;;11.03;;
19589;SDS011;12231;42.782;23.388;2022-12-05T17:56:04;20.57;;;10.20;;
19589;SDS011;12231;42.782;23.388;2022-12-05T17:58:30;19.83;;;9.50;;